Time;durP1;ratioP1;P1;durP2;ratioP2;P2;SDS_P1;SDS_P2;PMS_P1;PMS_P2;Temp;Humidity;BMP_temperature;BMP_pressure;BME280_temperature;BME280_humidity;BME280_pressure;Samples;Min_cycle;Max_cycle;Signal;HPM_P1;HPM_P2
2023/01/28 00:01:58;;;;;;;4.97;1.90;;;7.20;96.70;;;;;;4956970;28;20038;-71
2023/01/28 00:04:26;;;;;;;4.82;2.05;;;7.20;96.70;;;;;;4961597;28;20047;-71
2023/01/28 00:06:54;;;;;;;3.67;2.38;;;7.20;96.70;;;;;;4961321;28;20039;-71
2023/01/28 00:09:22;;;;;;;5.10;2.42;;;7.20;96.70;;;;;;4956542;28;20055;-73
2023/01/28 00:11:51;;;;;;;4.45;1.88;;;7.20;96.70;;;;;;4962397;28;20055;-72
2023/01/28 00:14:19;;;;;;;5.22;2.15;;;7.20;96.70;;;;;;4952544;28;20050;-72
2023/01/28 00:16:47;;;;;;;4.15;1.98;;;7.20;96.70;;;;;;4955712;28;20059;-76
2023/01/28 00:19:15;;;;;;;5.68;2.50;;;7.20;96.70;;;;;;4953666;28;20051;-75
2023/01/28 00:21:43;;;;;;;4.32;2.30;;;7.20;96.70;;;;;;4956292;28;20120;-74
2023/01/28 00:24:11;;;;;;;3.28;2.05;;;7.20;96.70;;;;;;4963386;28;20137;-76
2023/01/28 00:26:40;;;;;;;3.35;2.10;;;7.20;96.70;;;;;;4956744;28;20504;-75
2023/01/28 00:29:10;;;;;;;3.35;2.22;;;7.20;96.70;;;;;;4964246;28;20543;-75
2023/01/28 00:31:40;;;;;;;3.65;2.42;;;7.20;96.70;;;;;;4958822;28;20082;-76
2023/01/28 00:34:08;;;;;;;2.97;2.13;;;7.10;96.70;;;;;;4961988;28;20173;-76
2023/01/28 00:36:41;;;;;;;3.95;1.88;;;7.10;96.70;;;;;;4961990;28;20054;-76
2023/01/28 00:39:13;;;;;;;5.32;2.70;;;7.10;96.70;;;;;;4963674;28;20047;-76
2023/01/28 00:41:41;;;;;;;3.78;2.17;;;7.10;96.70;;;;;;4979875;28;20162;-76
2023/01/28 00:44:11;;;;;;;3.55;2.13;;;7.10;96.70;;;;;;4963014;28;20050;-75
2023/01/28 00:46:40;;;;;;;3.38;2.10;;;7.10;96.70;;;;;;4963560;28;20071;-75
2023/01/28 00:49:09;;;;;;;3.55;2.25;;;7.10;96.70;;;;;;4949193;28;20089;-75
2023/01/28 00:51:37;;;;;;;3.55;1.90;;;7.00;96.70;;;;;;4953485;28;20062;-75
2023/01/28 00:54:05;;;;;;;3.00;2.10;;;7.10;96.70;;;;;;4961967;28;20047;-76
2023/01/28 00:56:35;;;;;;;4.25;2.10;;;7.10;96.70;;;;;;4941739;28;20050;-75
2023/01/28 00:59:05;;;;;;;3.88;2.22;;;7.10;96.70;;;;;;4952786;28;20051;-76
2023/01/28 01:01:34;;;;;;;4.35;2.10;;;7.10;96.70;;;;;;4956174;28;20049;-75
2023/01/28 01:04:03;;;;;;;5.18;2.03;;;7.00;96.70;;;;;;4961997;28;20047;-74
2023/01/28 01:06:32;;;;;;;3.67;2.33;;;7.10;96.70;;;;;;4948011;28;20043;-74
2023/01/28 01:09:01;;;;;;;3.60;2.30;;;7.00;96.70;;;;;;4962576;28;20043;-74
2023/01/28 01:11:29;;;;;;;3.08;1.90;;;7.00;96.70;;;;;;4967771;28;20054;-75
2023/01/28 01:13:59;;;;;;;4.05;2.30;;;7.10;96.70;;;;;;4955753;28;20055;-74
2023/01/28 01:16:30;;;;;;;5.70;2.28;;;7.00;96.70;;;;;;4995684;23;20062;-71
2023/01/28 01:19:00;;;;;;;4.03;2.00;;;7.00;96.70;;;;;;4954585;28;20050;-71
2023/01/28 01:21:29;;;;;;;3.25;1.95;;;7.00;96.70;;;;;;4953804;28;20136;-71
2023/01/28 01:23:57;;;;;;;2.78;1.85;;;7.00;96.70;;;;;;4950982;28;20501;-71
2023/01/28 01:26:26;;;;;;;2.70;1.83;;;7.00;96.70;;;;;;4953658;28;20046;-70
2023/01/28 01:28:56;;;;;;;3.47;1.95;;;7.00;96.70;;;;;;4953173;28;20043;-70
2023/01/28 01:31:24;;;;;;;3.83;2.40;;;7.00;96.70;;;;;;4945752;28;20043;-71
2023/01/28 01:33:52;;;;;;;4.13;1.90;;;7.00;96.70;;;;;;4950319;28;20053;-71
2023/01/28 01:36:22;;;;;;;4.03;2.03;;;7.10;96.70;;;;;;4947753;28;20413;-71
2023/01/28 01:38:53;;;;;;;4.40;1.90;;;7.00;96.70;;;;;;4961090;28;20042;-71
2023/01/28 01:41:26;;;;;;;2.97;2.10;;;7.00;96.70;;;;;;4968414;28;20058;-71
2023/01/28 01:43:56;;;;;;;3.50;1.95;;;7.00;96.70;;;;;;4958098;28;20157;-70
2023/01/28 01:46:31;;;;;;;3.17;2.20;;;7.00;96.70;;;;;;4946780;28;20051;-72
2023/01/28 01:49:07;;;;;;;4.22;1.92;;;7.00;96.70;;;;;;4945428;28;20417;-72
2023/01/28 01:51:37;;;;;;;2.85;1.70;;;7.00;96.70;;;;;;4952566;28;20448;-71
2023/01/28 01:54:05;;;;;;;3.30;2.13;;;7.00;96.70;;;;;;4968450;28;20059;-71
2023/01/28 01:56:38;;;;;;;2.58;1.67;;;7.00;96.70;;;;;;4969246;28;20075;-71
2023/01/28 01:59:11;;;;;;;3.65;2.03;;;7.00;96.70;;;;;;4944415;28;20067;-71
2023/01/28 02:01:39;;;;;;;4.03;2.03;;;6.90;96.70;;;;;;4955837;28;20050;-71
2023/01/28 02:04:11;;;;;;;3.20;2.10;;;6.90;96.70;;;;;;4946705;28;20050;-71
2023/01/28 02:06:41;;;;;;;4.03;1.63;;;6.90;96.70;;;;;;4975617;28;20179;-70
2023/01/28 02:09:23;;;;;;;3.47;1.80;;;6.90;96.70;;;;;;4947930;28;20105;-71
2023/01/28 02:11:54;;;;;;;3.78;1.83;;;6.80;96.70;;;;;;4953456;28;20051;-72
2023/01/28 02:14:25;;;;;;;3.22;2.13;;;6.80;96.70;;;;;;4961028;28;20053;-70
2023/01/28 02:16:59;;;;;;;2.42;1.90;;;6.80;96.70;;;;;;4968071;28;20059;-71
2023/01/28 02:19:35;;;;;;;3.17;1.80;;;6.80;96.70;;;;;;4960539;28;20074;-71
2023/01/28 02:22:32;;;;;;;2.95;2.00;;;6.70;96.70;;;;;;4970627;28;20141;-71
2023/01/28 02:25:29;;;;;;;3.55;1.98;;;6.70;96.70;;;;;;4950688;28;20133;-71
2023/01/28 02:28:20;;;;;;;4.10;2.22;;;6.70;96.70;;;;;;4963268;28;20138;-71
2023/01/28 02:30:54;;;;;;;4.05;2.05;;;6.70;96.70;;;;;;4968919;28;20078;-72
2023/01/28 02:33:28;;;;;;;3.20;1.95;;;6.60;96.70;;;;;;4958966;28;20050;-71
2023/01/28 02:36:02;;;;;;;3.35;2.05;;;6.60;96.70;;;;;;4954595;28;20445;-71
2023/01/28 02:38:36;;;;;;;3.55;1.73;;;6.60;96.70;;;;;;4962027;28;20555;-71
2023/01/28 02:41:08;;;;;;;3.30;2.22;;;6.60;96.70;;;;;;4949448;28;20561;-71
2023/01/28 02:43:40;;;;;;;3.80;2.08;;;6.50;96.70;;;;;;4963203;28;20047;-71
2023/01/28 02:49:10;;;;;;;3.88;2.33;;;6.60;96.70;;;;;;4965042;28;20394;-72
2023/01/28 02:52:04;;;;;;;3.13;2.10;;;6.60;96.70;;;;;;4960835;28;20039;-71
2023/01/28 02:54:40;;;;;;;3.78;1.92;;;6.50;96.70;;;;;;4939827;28;20062;-72
2023/01/28 02:57:21;;;;;;;3.78;2.25;;;6.60;96.70;;;;;;4953040;28;20110;-71
2023/01/28 02:59:57;;;;;;;4.40;2.10;;;6.60;96.70;;;;;;4949658;28;20047;-71
2023/01/28 03:02:29;;;;;;;3.53;2.10;;;6.60;96.70;;;;;;4964198;28;20062;-71
2023/01/28 03:05:02;;;;;;;3.22;2.00;;;6.60;96.70;;;;;;4964034;28;20062;-71
2023/01/28 03:07:35;;;;;;;6.32;2.20;;;6.60;96.70;;;;;;4960533;28;20051;-72
2023/01/28 03:10:06;;;;;;;3.72;2.17;;;6.60;96.70;;;;;;4954731;28;20513;-71
2023/01/28 03:38:40;;;;;;;3.28;2.10;;;6.50;96.70;;;;;;4962873;28;20094;-70
2023/01/28 03:41:11;;;;;;;4.05;2.10;;;6.40;96.70;;;;;;4958825;28;20413;-71
2023/01/28 03:43:40;;;;;;;5.38;2.10;;;6.40;96.70;;;;;;4956629;28;20073;-72
2023/01/28 03:46:08;;;;;;;3.50;2.25;;;6.40;96.70;;;;;;4963289;28;20158;-70
2023/01/28 03:48:38;;;;;;;2.80;1.80;;;6.40;96.70;;;;;;4973292;28;20137;-71
2023/01/28 03:51:08;;;;;;;4.78;2.03;;;6.40;96.70;;;;;;4962681;28;20508;-71
2023/01/28 03:53:37;;;;;;;3.97;2.30;;;6.40;96.70;;;;;;4958998;28;20066;-71
2023/01/28 03:56:05;;;;;;;2.90;2.10;;;6.40;96.70;;;;;;4955045;28;20039;-70
2023/01/28 03:58:51;;;;;;;3.58;2.03;;;6.40;96.70;;;;;;4978968;28;20047;-71
2023/01/28 04:01:20;;;;;;;4.43;2.17;;;6.40;96.70;;;;;;4960892;28;20055;-71
2023/01/28 04:03:50;;;;;;;3.53;2.20;;;6.40;96.70;;;;;;4954642;28;20055;-72
2023/01/28 04:06:25;;;;;;;3.60;2.00;;;6.30;96.70;;;;;;4974175;28;20071;-71
2023/01/28 04:09:16;;;;;;;2.97;1.92;;;6.30;96.70;;;;;;4927220;28;20051;-71
2023/01/28 04:11:55;;;;;;;3.60;2.03;;;6.30;96.70;;;;;;4949717;28;20047;-71
2023/01/28 04:14:34;;;;;;;4.30;2.42;;;6.30;96.70;;;;;;4960647;28;20050;-71
2023/01/28 04:17:16;;;;;;;3.00;2.13;;;6.30;96.70;;;;;;4954250;28;20046;-71
2023/01/28 04:19:47;;;;;;;3.85;2.20;;;6.20;96.70;;;;;;4949269;28;20595;-71
2023/01/28 04:22:16;;;;;;;4.45;2.80;;;6.20;96.70;;;;;;4949865;28;20050;-71
2023/01/28 04:24:44;;;;;;;3.65;2.10;;;6.20;96.70;;;;;;4964307;28;20154;-70
2023/01/28 04:27:13;;;;;;;3.17;2.28;;;6.20;96.70;;;;;;4951002;28;20422;-71
2023/01/28 04:29:41;;;;;;;5.38;2.45;;;6.20;96.70;;;;;;4968167;28;20117;-71
2023/01/28 04:32:32;;;;;;;3.35;2.25;;;6.20;96.70;;;;;;4961043;28;20476;-71
2023/01/28 04:35:24;;;;;;;4.25;2.05;;;6.20;96.70;;;;;;4965449;28;20051;-72
2023/01/28 04:38:20;;;;;;;4.20;2.08;;;6.20;96.70;;;;;;4951686;28;20054;-71
2023/01/28 04:41:04;;;;;;;2.83;1.90;;;6.20;96.70;;;;;;4952476;28;20391;-71
2023/01/28 04:43:34;;;;;;;4.22;2.20;;;6.20;96.70;;;;;;4945996;28;20085;-72
2023/01/28 04:46:28;;;;;;;2.92;2.20;;;6.20;96.70;;;;;;4947903;28;20088;-73
2023/01/28 04:49:09;;;;;;;3.40;1.65;;;6.20;96.70;;;;;;4946929;28;20038;-72
2023/01/28 04:51:48;;;;;;;3.13;1.77;;;6.20;96.70;;;;;;4953092;28;20050;-72
2023/01/28 04:54:40;;;;;;;2.72;1.85;;;6.30;96.70;;;;;;4953307;28;20039;-72
2023/01/28 04:57:08;;;;;;;2.58;1.88;;;6.20;96.70;;;;;;4961682;28;20118;-73
2023/01/28 04:59:36;;;;;;;2.10;1.63;;;6.30;96.70;;;;;;4968965;28;20539;-73
2023/01/28 05:02:05;;;;;;;2.78;1.60;;;6.20;96.70;;;;;;4950028;28;20058;-72
2023/01/28 05:04:33;;;;;;;2.92;1.88;;;6.30;96.70;;;;;;4943876;28;20081;-71
2023/01/28 05:07:03;;;;;;;3.13;2.08;;;6.30;96.70;;;;;;4954413;28;20047;-72
2023/01/28 05:09:32;;;;;;;3.35;2.17;;;6.20;96.70;;;;;;4956037;28;20058;-71
2023/01/28 05:12:02;;;;;;;3.22;1.88;;;6.30;96.70;;;;;;4950529;28;20412;-72
2023/01/28 05:14:32;;;;;;;3.65;1.92;;;6.30;96.70;;;;;;4960145;28;21702;-72
2023/01/28 05:17:06;;;;;;;4.82;1.85;;;6.20;96.70;;;;;;4939525;28;20065;-73
2023/01/28 05:19:35;;;;;;;3.90;1.88;;;6.30;96.70;;;;;;4952069;28;20051;-72
2023/01/28 05:22:09;;;;;;;2.70;1.83;;;6.30;96.70;;;;;;4962773;28;20050;-72
2023/01/28 05:24:41;;;;;;;2.70;2.08;;;6.30;96.70;;;;;;4975839;28;20583;-72
2023/01/28 05:27:10;;;;;;;4.47;2.28;;;6.30;96.70;;;;;;4950907;28;20074;-72
2023/01/28 05:29:38;;;;;;;3.70;1.90;;;6.30;96.70;;;;;;4969137;28;21253;-72
2023/01/28 05:32:06;;;;;;;2.55;1.67;;;6.30;96.70;;;;;;4975272;28;20070;-72
2023/01/28 05:34:35;;;;;;;2.80;2.05;;;6.20;96.70;;;;;;4928225;29;20054;-73
2023/01/28 05:37:11;;;;;;;4.95;2.20;;;6.20;96.70;;;;;;4943844;28;20137;-72
2023/01/28 05:39:39;;;;;;;3.65;2.03;;;6.20;96.70;;;;;;4945624;28;20059;-72
2023/01/28 05:42:07;;;;;;;3.47;2.20;;;6.20;96.70;;;;;;4961186;28;20047;-72
2023/01/28 05:44:41;;;;;;;4.07;2.22;;;6.20;96.70;;;;;;4934095;28;20075;-72
2023/01/28 05:47:18;;;;;;;2.47;1.60;;;6.20;96.70;;;;;;4953188;28;20051;-72
2023/01/28 05:49:52;;;;;;;2.53;1.63;;;6.20;96.70;;;;;;4950992;28;20059;-72
2023/01/28 05:52:57;;;;;;;3.50;1.88;;;6.20;96.70;;;;;;4900177;29;20130;-72
2023/01/28 05:55:31;;;;;;;4.00;1.65;;;6.30;96.70;;;;;;4938834;28;20592;-72
2023/01/28 05:58:00;;;;;;;2.58;1.85;;;6.30;96.70;;;;;;4950333;28;20089;-72
2023/01/28 06:00:28;;;;;;;2.53;1.80;;;6.30;96.70;;;;;;4942399;28;20043;-72
2023/01/28 06:02:56;;;;;;;2.72;1.95;;;6.30;96.70;;;;;;4963327;28;20058;-72
2023/01/28 06:05:24;;;;;;;3.08;1.80;;;6.20;96.70;;;;;;4943725;28;20054;-72
2023/01/28 06:07:53;;;;;;;3.28;2.22;;;6.30;96.70;;;;;;4945727;28;20055;-72
2023/01/28 06:10:23;;;;;;;3.10;1.98;;;6.30;96.70;;;;;;4952173;28;20098;-73
2023/01/28 06:12:51;;;;;;;3.90;1.90;;;6.30;96.70;;;;;;4953003;28;20085;-72
2023/01/28 06:15:35;;;;;;;2.80;1.75;;;6.30;96.70;;;;;;4946805;28;20043;-72
2023/01/28 06:18:34;;;;;;;4.10;2.05;;;6.40;96.70;;;;;;4946066;28;20047;-72
2023/01/28 06:21:02;;;;;;;3.63;1.77;;;6.30;96.70;;;;;;4955905;28;20050;-72
2023/01/28 06:23:30;;;;;;;2.80;1.75;;;6.40;96.70;;;;;;4959435;28;20097;-72
2023/01/28 06:26:00;;;;;;;2.97;1.88;;;6.30;96.70;;;;;;4960773;28;20085;-73
2023/01/28 06:28:28;;;;;;;3.25;1.65;;;6.40;96.70;;;;;;4953666;28;20047;-72
2023/01/28 06:30:56;;;;;;;3.00;1.90;;;6.40;96.70;;;;;;4942554;28;20615;-72
2023/01/28 06:33:27;;;;;;;3.17;2.08;;;6.40;96.70;;;;;;4954729;28;20106;-72
2023/01/28 06:35:56;;;;;;;2.63;1.30;;;6.40;96.70;;;;;;4948660;28;20640;-72
2023/01/28 06:38:24;;;;;;;3.72;2.03;;;6.40;96.70;;;;;;4969700;28;20099;-73
2023/01/28 06:40:54;;;;;;;2.40;1.80;;;6.40;96.70;;;;;;4960370;28;20142;-72
2023/01/28 06:43:26;;;;;;;3.85;1.75;;;6.40;96.70;;;;;;4949142;28;20138;-72
2023/01/28 06:45:55;;;;;;;3.85;1.73;;;6.40;96.70;;;;;;4952543;28;20039;-72
2023/01/28 06:48:24;;;;;;;4.40;1.90;;;6.50;96.70;;;;;;4947650;28;20496;-71
2023/01/28 06:50:52;;;;;;;2.92;1.63;;;6.50;96.70;;;;;;4975950;28;20105;-72
2023/01/28 06:53:21;;;;;;;2.97;1.42;;;6.50;96.70;;;;;;4946488;28;20035;-74
2023/01/28 06:55:49;;;;;;;2.78;1.60;;;6.50;96.70;;;;;;4953091;28;20150;-72
2023/01/28 06:58:17;;;;;;;2.67;1.80;;;6.50;96.70;;;;;;4963189;28;20816;-73
2023/01/28 07:00:46;;;;;;;2.40;1.70;;;6.50;96.70;;;;;;4950188;28;20134;-71
2023/01/28 07:03:15;;;;;;;4.47;2.20;;;6.50;96.70;;;;;;4962676;28;20331;-72
2023/01/28 07:05:43;;;;;;;2.47;1.40;;;6.50;96.70;;;;;;4963280;28;20059;-70
2023/01/28 07:08:12;;;;;;;3.13;1.55;;;6.50;96.70;;;;;;4964774;28;20887;-72
2023/01/28 07:10:40;;;;;;;2.58;1.50;;;6.60;96.70;;;;;;4957984;28;20051;-72
2023/01/28 07:13:08;;;;;;;2.70;1.77;;;6.60;96.70;;;;;;4955872;28;20089;-73
2023/01/28 07:15:36;;;;;;;2.35;1.55;;;6.60;96.70;;;;;;4966317;28;20047;-72
2023/01/28 07:18:06;;;;;;;3.47;1.80;;;6.70;96.70;;;;;;4968710;28;20135;-74
2023/01/28 07:20:34;;;;;;;3.47;1.55;;;6.60;96.70;;;;;;4948142;28;20561;-72
2023/01/28 07:23:02;;;;;;;3.38;1.90;;;6.70;96.70;;;;;;4961238;28;20151;-71
2023/01/28 07:25:30;;;;;;;3.45;1.73;;;6.70;96.70;;;;;;4957383;28;20047;-71
2023/01/28 07:27:58;;;;;;;3.40;2.10;;;6.70;96.70;;;;;;4946669;28;20161;-72
2023/01/28 07:30:27;;;;;;;2.70;1.73;;;6.70;96.70;;;;;;4929919;29;20051;-71
2023/01/28 07:32:56;;;;;;;2.83;1.70;;;6.70;96.70;;;;;;4956917;28;20086;-72
2023/01/28 07:35:26;;;;;;;3.22;2.13;;;6.70;96.70;;;;;;4962387;28;20820;-72
2023/01/28 07:37:55;;;;;;;2.83;1.83;;;6.80;96.70;;;;;;4957695;28;20071;-73
2023/01/28 07:40:23;;;;;;;3.53;1.85;;;6.80;96.70;;;;;;4949948;28;20719;-72
2023/01/28 07:42:54;;;;;;;4.18;1.73;;;6.80;96.70;;;;;;4945893;28;20122;-72
2023/01/28 07:45:23;;;;;;;2.88;1.73;;;6.80;96.70;;;;;;4935332;28;20210;-72
2023/01/28 07:47:55;;;;;;;3.20;2.00;;;6.80;96.70;;;;;;4943959;28;20050;-73
2023/01/28 07:50:25;;;;;;;3.97;2.20;;;6.90;96.70;;;;;;4944956;28;20050;-72
2023/01/28 07:52:54;;;;;;;3.33;2.20;;;6.90;96.70;;;;;;4919380;29;20075;-73
2023/01/28 07:55:22;;;;;;;4.90;2.70;;;7.00;96.70;;;;;;4944856;28;20074;-71
2023/01/28 07:57:51;;;;;;;3.85;1.85;;;7.10;96.70;;;;;;4942449;28;20059;-72
2023/01/28 08:00:20;;;;;;;4.47;2.35;;;7.10;96.70;;;;;;4943258;28;20059;-73
2023/01/28 08:02:49;;;;;;;4.35;2.30;;;7.10;96.70;;;;;;4951395;28;20462;-73
2023/01/28 08:05:19;;;;;;;3.30;2.05;;;7.10;96.70;;;;;;4950639;28;20101;-71
2023/01/28 08:07:49;;;;;;;4.40;2.40;;;7.10;96.70;;;;;;4948747;28;20126;-71
2023/01/28 08:10:18;;;;;;;4.03;2.30;;;7.20;96.70;;;;;;4956378;28;20076;-71
2023/01/28 08:12:53;;;;;;;4.15;2.20;;;7.30;96.70;;;;;;4958536;28;20493;-72
2023/01/28 08:15:22;;;;;;;4.38;2.22;;;7.30;96.70;;;;;;4951274;28;20134;-71
2023/01/28 08:17:50;;;;;;;4.60;2.05;;;7.40;96.70;;;;;;4944807;28;20646;-72
2023/01/28 08:20:18;;;;;;;4.13;2.20;;;7.40;96.70;;;;;;4945836;28;20047;-72
2023/01/28 08:22:53;;;;;;;4.07;2.10;;;7.50;96.70;;;;;;4947311;28;20039;-72
2023/01/28 08:25:21;;;;;;;4.05;2.65;;;7.50;96.70;;;;;;4962913;28;20054;-73
2023/01/28 08:28:11;;;;;;;3.58;2.15;;;7.50;96.70;;;;;;4959872;28;20102;-73
2023/01/28 08:30:40;;;;;;;7.10;3.38;;;7.50;96.70;;;;;;4945993;28;20051;-73
2023/01/28 08:33:11;;;;;;;6.07;3.50;;;7.70;96.70;;;;;;4977473;28;20081;-72
2023/01/28 08:35:39;;;;;;;3.85;2.40;;;7.70;96.70;;;;;;4970077;28;20050;-71
2023/01/28 08:38:10;;;;;;;3.58;2.33;;;7.70;96.70;;;;;;4950181;28;20050;-72
2023/01/28 08:40:39;;;;;;;3.70;1.92;;;7.70;96.70;;;;;;4961188;28;20043;-72
2023/01/28 08:43:07;;;;;;;4.07;2.22;;;7.80;96.70;;;;;;4954073;28;20051;-72
2023/01/28 08:45:35;;;;;;;4.00;2.42;;;7.80;96.70;;;;;;4961118;28;20138;-70
2023/01/28 08:48:06;;;;;;;4.35;2.42;;;7.80;96.70;;;;;;4952913;28;20070;-69
2023/01/28 08:50:37;;;;;;;6.53;2.33;;;7.80;96.70;;;;;;4973152;28;20057;-71
2023/01/28 08:53:09;;;;;;;5.05;2.53;;;7.80;96.70;;;;;;4951548;28;20520;-72
2023/01/28 08:55:38;;;;;;;4.57;2.40;;;7.80;96.70;;;;;;4944011;28;20142;-72
2023/01/28 08:58:08;;;;;;;6.80;2.60;;;7.90;96.70;;;;;;4946297;28;20110;-72
2023/01/28 09:00:37;;;;;;;3.05;2.30;;;7.90;96.70;;;;;;4947782;28;20109;-71
2023/01/28 09:03:06;;;;;;;4.10;2.25;;;7.90;96.70;;;;;;4956473;28;20046;-72
2023/01/28 09:05:34;;;;;;;4.13;2.20;;;7.90;96.70;;;;;;4959846;28;20051;-74
2023/01/28 09:08:03;;;;;;;4.00;2.53;;;7.90;96.70;;;;;;4944568;28;20050;-72
2023/01/28 09:10:32;;;;;;;4.28;2.30;;;7.90;96.70;;;;;;4955093;28;20042;-72
2023/01/28 09:13:05;;;;;;;3.72;2.58;;;7.90;96.70;;;;;;4966785;28;20042;-73
2023/01/28 09:15:34;;;;;;;5.35;3.05;;;7.90;96.70;;;;;;4978387;28;20097;-72
2023/01/28 09:18:02;;;;;;;4.75;2.55;;;7.90;96.70;;;;;;4952294;28;20039;-73
2023/01/28 09:20:31;;;;;;;4.00;2.50;;;8.00;96.70;;;;;;4961246;28;20055;-73
2023/01/28 09:23:00;;;;;;;5.25;2.30;;;8.10;96.70;;;;;;4963836;28;20046;-72
2023/01/28 09:25:29;;;;;;;3.00;2.17;;;8.10;96.70;;;;;;4948623;28;20131;-72
2023/01/28 09:27:58;;;;;;;4.72;2.72;;;8.20;96.70;;;;;;4960205;28;20051;-71
2023/01/28 09:30:27;;;;;;;11.52;7.43;;;8.20;96.70;;;;;;4950875;28;20124;-71
2023/01/28 09:32:57;;;;;;;6.85;4.57;;;8.20;96.70;;;;;;4966037;28;20039;-70
2023/01/28 09:35:25;;;;;;;5.57;3.60;;;8.30;96.70;;;;;;4953081;28;20046;-70
2023/01/28 09:37:56;;;;;;;4.72;2.90;;;8.40;96.70;;;;;;4953106;28;20038;-71
2023/01/28 09:40:31;;;;;;;5.90;3.15;;;8.50;96.70;;;;;;4958070;28;20134;-72
2023/01/28 09:43:33;;;;;;;4.28;2.75;;;8.50;96.70;;;;;;4966434;28;20142;-71
2023/01/28 09:46:04;;;;;;;5.20;3.25;;;8.60;96.70;;;;;;4947431;28;20054;-73
2023/01/28 09:48:36;;;;;;;4.90;2.88;;;8.60;96.70;;;;;;4955069;28;20042;-71
2023/01/28 09:51:09;;;;;;;4.15;2.50;;;8.60;96.70;;;;;;4953952;28;20051;-71
2023/01/28 09:53:42;;;;;;;4.47;2.72;;;8.60;96.70;;;;;;4949986;28;20668;-73
2023/01/28 09:56:13;;;;;;;4.53;2.72;;;8.60;96.70;;;;;;4965960;28;20564;-70
2023/01/28 09:58:43;;;;;;;3.60;2.45;;;8.70;96.70;;;;;;4953978;28;20047;-72
2023/01/28 10:01:38;;;;;;;4.07;2.25;;;8.70;96.70;;;;;;4951093;28;20039;-72
2023/01/28 10:04:21;;;;;;;3.30;2.28;;;8.80;96.70;;;;;;4955605;28;20046;-70
2023/01/28 10:06:59;;;;;;;2.70;1.70;;;8.80;96.70;;;;;;4953309;28;20545;-72
2023/01/28 10:09:40;;;;;;;4.43;2.67;;;8.90;96.70;;;;;;4949107;28;20054;-71
2023/01/28 10:12:22;;;;;;;4.78;2.47;;;8.90;96.70;;;;;;4952325;28;20058;-72
2023/01/28 10:15:04;;;;;;;4.22;2.58;;;8.90;96.70;;;;;;4966203;28;20757;-72
2023/01/28 10:17:39;;;;;;;3.28;2.15;;;9.00;96.70;;;;;;4950377;28;20067;-72
2023/01/28 10:20:18;;;;;;;4.32;2.92;;;8.90;96.70;;;;;;4967606;28;20070;-72
2023/01/28 10:22:52;;;;;;;5.78;3.42;;;9.00;96.70;;;;;;4949816;28;20086;-73
2023/01/28 10:25:22;;;;;;;4.53;3.00;;;9.10;96.70;;;;;;4968028;28;20121;-72
2023/01/28 10:27:51;;;;;;;6.15;2.83;;;9.10;96.70;;;;;;4937347;28;20450;-72
2023/01/28 10:30:24;;;;;;;4.07;2.90;;;9.20;96.70;;;;;;4952249;28;20440;-72
2023/01/28 10:32:56;;;;;;;3.75;2.55;;;9.20;96.70;;;;;;4951281;28;20050;-72
2023/01/28 10:35:24;;;;;;;4.95;2.65;;;9.20;96.70;;;;;;4948837;28;20043;-73
2023/01/28 10:38:00;;;;;;;3.38;1.98;;;9.30;96.70;;;;;;4970185;28;20035;-73
2023/01/28 10:40:28;;;;;;;5.17;2.70;;;9.40;96.70;;;;;;4971432;28;20142;-73
2023/01/28 10:42:56;;;;;;;4.75;2.67;;;9.40;96.70;;;;;;4968176;28;20067;-72
2023/01/28 10:45:29;;;;;;;4.07;2.67;;;9.50;96.70;;;;;;4959293;28;20133;-71
2023/01/28 10:48:02;;;;;;;3.75;2.40;;;9.40;96.70;;;;;;4961616;28;20055;-71
2023/01/28 10:50:31;;;;;;;3.97;2.58;;;9.50;96.70;;;;;;4956941;28;20556;-71
2023/01/28 10:53:01;;;;;;;4.05;2.55;;;9.60;96.70;;;;;;4956354;28;20042;-71
2023/01/28 10:55:34;;;;;;;16.27;10.30;;;9.80;96.70;;;;;;4970897;28;20413;-71
2023/01/28 10:58:04;;;;;;;5.68;3.45;;;9.90;96.70;;;;;;4955565;28;20039;-71
2023/01/28 11:00:36;;;;;;;5.72;3.60;;;9.90;96.70;;;;;;4954589;28;20050;-69
2023/01/28 11:03:04;;;;;;;4.72;3.72;;;9.90;96.70;;;;;;4957751;28;20133;-71
2023/01/28 11:05:33;;;;;;;4.68;3.60;;;9.90;96.70;;;;;;4956812;28;20035;-71
2023/01/28 11:08:11;;;;;;;6.25;3.80;;;9.90;96.70;;;;;;4966988;28;20047;-73
2023/01/28 11:10:40;;;;;;;4.00;3.00;;;9.90;96.70;;;;;;4956582;28;20054;-72
2023/01/28 11:13:16;;;;;;;5.72;3.38;;;9.90;96.70;;;;;;4950816;28;20050;-72
2023/01/28 11:15:50;;;;;;;4.68;2.92;;;10.00;96.70;;;;;;4964126;28;20670;-73
2023/01/28 11:18:23;;;;;;;4.72;2.97;;;10.00;96.70;;;;;;4957575;28;20039;-76
2023/01/28 11:20:55;;;;;;;7.38;4.25;;;10.10;96.70;;;;;;4953221;28;20069;-72
2023/01/28 11:23:26;;;;;;;6.50;4.47;;;10.20;96.70;;;;;;4961145;28;20047;-72
2023/01/28 11:26:04;;;;;;;8.10;3.72;;;10.20;96.70;;;;;;4961171;28;20133;-71
2023/01/28 11:28:33;;;;;;;5.55;3.08;;;10.30;96.70;;;;;;4950819;28;20053;-73
2023/01/28 11:31:03;;;;;;;5.50;3.30;;;10.30;96.70;;;;;;4957859;28;20039;-73
2023/01/28 11:33:36;;;;;;;4.35;2.85;;;10.40;96.70;;;;;;4968879;28;20055;-73
2023/01/28 11:36:07;;;;;;;4.05;2.90;;;10.50;96.70;;;;;;4954253;28;20039;-75
2023/01/28 11:38:45;;;;;;;6.18;3.35;;;10.50;96.70;;;;;;4951825;28;20043;-74
2023/01/28 11:41:15;;;;;;;7.72;5.30;;;10.60;96.70;;;;;;4972457;28;20556;-74
2023/01/28 11:43:44;;;;;;;6.18;4.20;;;10.70;96.70;;;;;;4954694;28;20102;-74
2023/01/28 11:46:38;;;;;;;5.45;3.70;;;10.80;96.70;;;;;;4967282;28;20046;-73
2023/01/28 11:49:15;;;;;;;8.32;3.88;;;10.90;96.70;;;;;;4953360;28;20094;-74
2023/01/28 11:51:52;;;;;;;4.60;3.28;;;10.90;96.70;;;;;;4955460;28;20047;-74
2023/01/28 11:54:35;;;;;;;4.70;3.35;;;11.00;96.70;;;;;;4944162;28;20055;-76
2023/01/28 11:57:22;;;;;;;3.97;2.80;;;10.90;96.70;;;;;;4953832;28;20046;-74
2023/01/28 12:00:18;;;;;;;4.35;2.85;;;10.90;96.70;;;;;;4955337;28;20141;-75
2023/01/28 12:02:53;;;;;;;5.10;3.03;;;11.00;96.70;;;;;;4954729;28;20042;-76
2023/01/28 12:05:39;;;;;;;4.60;3.20;;;11.00;96.70;;;;;;4958654;28;20438;-75
2023/01/28 12:08:17;;;;;;;4.80;3.22;;;11.00;96.70;;;;;;4954651;28;20043;-75
2023/01/28 12:11:04;;;;;;;5.30;3.53;;;11.00;96.70;;;;;;4951491;28;20046;-76
2023/01/28 12:13:47;;;;;;;4.10;2.95;;;11.00;96.70;;;;;;4953579;28;20051;-77
2023/01/28 12:16:42;;;;;;;6.13;3.65;;;11.10;96.70;;;;;;4962214;28;20051;-77
2023/01/28 12:19:37;;;;;;;5.13;3.20;;;11.20;96.70;;;;;;4967371;28;20106;-77
2023/01/28 12:22:26;;;;;;;7.90;3.47;;;11.10;96.70;;;;;;4979201;28;20145;-76
2023/01/28 12:25:10;;;;;;;9.07;5.95;;;11.20;96.70;;;;;;4959264;28;20577;-77
2023/01/28 12:27:50;;;;;;;6.43;4.60;;;11.40;96.70;;;;;;4951978;28;20134;-75
2023/01/28 12:30:32;;;;;;;5.68;3.78;;;11.50;96.70;;;;;;4953290;28;21018;-76
2023/01/28 12:33:19;;;;;;;5.82;3.25;;;11.60;96.70;;;;;;4957634;28;20536;-74
2023/01/28 12:36:05;;;;;;;6.68;3.50;;;11.70;96.70;;;;;;4956615;28;20855;-76
2023/01/28 12:38:43;;;;;;;5.22;3.70;;;11.60;96.70;;;;;;4944572;28;20055;-77
2023/01/28 12:41:15;;;;;;;4.25;3.13;;;11.70;96.70;;;;;;4955147;28;20405;-73
2023/01/28 12:43:50;;;;;;;6.68;3.28;;;11.80;96.70;;;;;;4975078;28;20078;-72
2023/01/28 12:46:30;;;;;;;4.15;3.13;;;11.70;96.70;;;;;;4975126;28;20065;-73
2023/01/28 12:49:04;;;;;;;6.00;3.28;;;11.60;96.70;;;;;;4960030;28;20039;-72
2023/01/28 12:51:42;;;;;;;6.63;3.50;;;11.50;96.70;;;;;;4970196;28;20043;-72
2023/01/28 12:54:18;;;;;;;4.72;3.08;;;11.50;96.70;;;;;;4951938;28;20922;-71
2023/01/28 12:56:51;;;;;;;4.32;2.97;;;11.50;96.70;;;;;;4967895;28;20070;-72
2023/01/28 12:59:24;;;;;;;6.00;3.22;;;11.50;96.70;;;;;;4947284;28;20047;-72
2023/01/28 13:02:00;;;;;;;3.95;2.70;;;11.40;96.70;;;;;;4954240;28;20070;-71
2023/01/28 13:04:36;;;;;;;4.90;3.30;;;11.40;96.70;;;;;;4945157;28;20050;-72
2023/01/28 13:07:14;;;;;;;4.43;3.10;;;11.40;96.70;;;;;;4949040;28;20054;-71
2023/01/28 13:09:48;;;;;;;8.02;6.20;;;11.40;96.70;;;;;;4943123;28;20143;-72
2023/01/28 13:12:17;;;;;;;8.63;6.43;;;11.40;96.70;;;;;;4951939;28;20047;-71
2023/01/28 13:14:46;;;;;;;7.47;5.20;;;11.50;96.70;;;;;;4954561;28;20046;-71
2023/01/28 13:17:26;;;;;;;6.50;4.45;;;11.60;96.70;;;;;;4959225;28;20416;-71
2023/01/28 13:19:54;;;;;;;6.57;3.88;;;11.60;96.70;;;;;;4950271;28;20046;-71
2023/01/28 13:22:33;;;;;;;4.78;3.30;;;11.70;96.70;;;;;;4963864;28;20051;-71
2023/01/28 13:25:20;;;;;;;5.72;3.63;;;11.60;96.70;;;;;;4951327;28;20050;-71
2023/01/28 13:28:00;;;;;;;5.25;3.67;;;11.50;96.70;;;;;;4967952;28;20047;-71
2023/01/28 13:30:30;;;;;;;6.60;4.13;;;11.40;96.70;;;;;;4954247;28;20039;-71
2023/01/28 13:33:00;;;;;;;6.72;4.32;;;11.50;96.70;;;;;;4955119;28;20039;-72
2023/01/28 13:35:34;;;;;;;5.13;4.00;;;11.50;96.70;;;;;;4949992;28;20589;-71
2023/01/28 13:38:15;;;;;;;5.05;4.05;;;11.60;96.70;;;;;;4952678;28;20034;-71
2023/01/28 13:40:52;;;;;;;7.32;4.40;;;11.60;96.70;;;;;;4949045;28;20047;-71
2023/01/28 13:43:33;;;;;;;5.57;4.13;;;11.60;96.70;;;;;;4953064;28;20046;-74
2023/01/28 13:46:04;;;;;;;5.57;3.58;;;11.70;96.70;;;;;;4948602;28;20062;-74
2023/01/28 13:48:39;;;;;;;7.65;4.50;;;11.60;96.70;;;;;;4968860;28;20039;-71
2023/01/28 13:51:16;;;;;;;6.00;4.30;;;11.60;96.70;;;;;;4966018;28;20042;-72
2023/01/28 13:53:52;;;;;;;6.20;4.70;;;11.60;96.70;;;;;;4951044;28;20067;-71
2023/01/28 13:56:25;;;;;;;6.47;3.60;;;11.60;96.70;;;;;;4952360;28;20125;-71